sensor_id;sensor_type;location;lat;lon;timestamp;P1;durP1;ratioP1;P2;durP2;ratioP2
68140;SDS011;54941;52.220;104.306;2023-10-09T00:00:43;15.85;;;7.45;;
68140;SDS011;54941;52.220;104.306;2023-10-09T00:03:09;12.13;;;6.82;;
68140;SDS011;54941;52.220;104.306;2023-10-09T00:05:35;15.70;;;7.30;;
68140;SDS011;54941;52.220;104.306;2023-10-09T00:08:02;12.52;;;6.90;;
68140;SDS011;54941;52.220;104.306;2023-10-09T00:10:28;11.82;;;6.53;;
68140;SDS011;54941;52.220;104.306;2023-10-09T00:12:56;13.45;;;6.22;;
68140;SDS011;54941;52.220;104.306;2023-10-09T00:15:22;14.18;;;8.25;;
68140;SDS011;54941;52.220;104.306;2023-10-09T00:17:49;10.60;;;5.93;;
68140;SDS011;54941;52.220;104.306;2023-10-09T00:20:15;10.05;;;6.07;;
68140;SDS011;54941;52.220;104.306;2023-10-09T00:22:42;10.07;;;5.72;;
68140;SDS011;54941;52.220;104.306;2023-10-09T00:25:08;10.00;;;6.05;;
68140;SDS011;54941;52.220;104.306;2023-10-09T00:27:34;9.98;;;5.57;;
68140;SDS011;54941;52.220;104.306;2023-10-09T00:30:02;10.55;;;5.88;;
68140;SDS011;54941;52.220;104.306;2023-10-09T00:32:31;9.93;;;5.55;;
68140;SDS011;54941;52.220;104.306;2023-10-09T00:34:57;11.85;;;5.45;;
68140;SDS011;54941;52.220;104.306;2023-10-09T00:37:23;10.50;;;5.43;;
68140;SDS011;54941;52.220;104.306;2023-10-09T00:39:49;9.63;;;5.63;;
68140;SDS011;54941;52.220;104.306;2023-10-09T00:42:16;12.45;;;6.00;;
68140;SDS011;54941;52.220;104.306;2023-10-09T00:44:42;8.57;;;4.35;;
68140;SDS011;54941;52.220;104.306;2023-10-09T00:47:12;9.38;;;5.50;;
68140;SDS011;54941;52.220;104.306;2023-10-09T00:49:38;10.38;;;6.13;;
68140;SDS011;54941;52.220;104.306;2023-10-09T00:52:04;11.55;;;6.18;;
68140;SDS011;54941;52.220;104.306;2023-10-09T00:54:31;12.63;;;6.45;;
68140;SDS011;54941;52.220;104.306;2023-10-09T00:56:57;14.10;;;7.10;;
68140;SDS011;54941;52.220;104.306;2023-10-09T00:59:23;13.38;;;6.95;;
68140;SDS011;54941;52.220;104.306;2023-10-09T01:01:51;14.77;;;6.57;;
68140;SDS011;54941;52.220;104.306;2023-10-09T01:04:19;9.93;;;6.07;;
68140;SDS011;54941;52.220;104.306;2023-10-09T01:06:46;11.85;;;6.65;;
68140;SDS011;54941;52.220;104.306;2023-10-09T01:09:16;8.15;;;5.03;;
68140;SDS011;54941;52.220;104.306;2023-10-09T01:11:42;9.95;;;5.60;;
68140;SDS011;54941;52.220;104.306;2023-10-09T01:14:08;8.68;;;5.18;;
68140;SDS011;54941;52.220;104.306;2023-10-09T01:16:35;9.32;;;4.80;;
68140;SDS011;54941;52.220;104.306;2023-10-09T01:19:01;9.02;;;5.07;;
68140;SDS011;54941;52.220;104.306;2023-10-09T01:21:29;9.48;;;4.45;;
68140;SDS011;54941;52.220;104.306;2023-10-09T01:23:57;9.88;;;4.65;;
68140;SDS011;54941;52.220;104.306;2023-10-09T01:26:23;8.30;;;4.53;;
68140;SDS011;54941;52.220;104.306;2023-10-09T01:28:49;7.78;;;4.45;;
68140;SDS011;54941;52.220;104.306;2023-10-09T01:31:15;8.95;;;4.88;;
68140;SDS011;54941;52.220;104.306;2023-10-09T01:33:42;7.30;;;3.75;;
68140;SDS011;54941;52.220;104.306;2023-10-09T01:36:08;8.73;;;4.07;;
68140;SDS011;54941;52.220;104.306;2023-10-09T01:38:34;8.75;;;4.18;;
68140;SDS011;54941;52.220;104.306;2023-10-09T01:41:02;7.63;;;3.92;;
68140;SDS011;54941;52.220;104.306;2023-10-09T01:43:28;7.25;;;4.40;;
68140;SDS011;54941;52.220;104.306;2023-10-09T01:45:55;6.75;;;3.63;;
68140;SDS011;54941;52.220;104.306;2023-10-09T01:48:21;6.28;;;3.75;;
68140;SDS011;54941;52.220;104.306;2023-10-09T01:50:47;7.07;;;3.42;;
68140;SDS011;54941;52.220;104.306;2023-10-09T01:53:13;6.63;;;3.60;;
68140;SDS011;54941;52.220;104.306;2023-10-09T01:55:40;7.15;;;3.80;;
68140;SDS011;54941;52.220;104.306;2023-10-09T01:58:08;8.15;;;4.00;;
68140;SDS011;54941;52.220;104.306;2023-10-09T02:00:34;7.50;;;4.15;;
68140;SDS011;54941;52.220;104.306;2023-10-09T02:03:00;7.07;;;3.45;;
68140;SDS011;54941;52.220;104.306;2023-10-09T02:05:26;7.78;;;3.60;;
68140;SDS011;54941;52.220;104.306;2023-10-09T02:07:53;9.50;;;3.85;;
68140;SDS011;54941;52.220;104.306;2023-10-09T02:10:20;5.28;;;3.20;;
68140;SDS011;54941;52.220;104.306;2023-10-09T02:12:47;7.72;;;3.47;;
68140;SDS011;54941;52.220;104.306;2023-10-09T02:15:15;5.20;;;3.30;;
68140;SDS011;54941;52.220;104.306;2023-10-09T02:17:42;6.50;;;3.63;;
68140;SDS011;54941;52.220;104.306;2023-10-09T02:20:08;4.90;;;3.13;;
68140;SDS011;54941;52.220;104.306;2023-10-09T02:22:35;6.25;;;3.75;;
68140;SDS011;54941;52.220;104.306;2023-10-09T02:25:01;6.63;;;3.95;;
68140;SDS011;54941;52.220;104.306;2023-10-09T02:27:29;6.10;;;3.75;;
68140;SDS011;54941;52.220;104.306;2023-10-09T02:29:56;5.38;;;3.28;;
68140;SDS011;54941;52.220;104.306;2023-10-09T02:32:23;4.97;;;3.30;;
68140;SDS011;54941;52.220;104.306;2023-10-09T02:34:50;7.40;;;4.57;;
68140;SDS011;54941;52.220;104.306;2023-10-09T02:37:16;5.82;;;4.05;;
68140;SDS011;54941;52.220;104.306;2023-10-09T02:39:42;6.78;;;3.60;;
68140;SDS011;54941;52.220;104.306;2023-10-09T02:42:08;5.28;;;3.67;;
68140;SDS011;54941;52.220;104.306;2023-10-09T02:44:35;4.57;;;3.22;;
68140;SDS011;54941;52.220;104.306;2023-10-09T02:47:03;7.63;;;4.38;;
68140;SDS011;54941;52.220;104.306;2023-10-09T02:49:31;6.30;;;4.25;;
68140;SDS011;54941;52.220;104.306;2023-10-09T02:51:57;7.90;;;3.63;;
68140;SDS011;54941;52.220;104.306;2023-10-09T02:54:24;7.47;;;4.05;;
68140;SDS011;54941;52.220;104.306;2023-10-09T02:56:51;7.60;;;3.60;;
68140;SDS011;54941;52.220;104.306;2023-10-09T02:59:18;5.68;;;3.55;;
68140;SDS011;54941;52.220;104.306;2023-10-09T03:01:45;7.63;;;3.78;;
68140;SDS011;54941;52.220;104.306;2023-10-09T03:04:11;6.80;;;3.83;;
68140;SDS011;54941;52.220;104.306;2023-10-09T03:06:39;8.07;;;4.10;;
68140;SDS011;54941;52.220;104.306;2023-10-09T03:09:05;8.20;;;4.15;;
68140;SDS011;54941;52.220;104.306;2023-10-09T03:11:31;5.57;;;3.40;;
68140;SDS011;54941;52.220;104.306;2023-10-09T03:13:58;7.68;;;4.50;;
68140;SDS011;54941;52.220;104.306;2023-10-09T03:16:24;6.20;;;3.30;;
68140;SDS011;54941;52.220;104.306;2023-10-09T03:18:52;6.93;;;4.18;;
68140;SDS011;54941;52.220;104.306;2023-10-09T03:21:19;6.20;;;3.50;;
68140;SDS011;54941;52.220;104.306;2023-10-09T03:23:47;5.70;;;3.25;;
68140;SDS011;54941;52.220;104.306;2023-10-09T03:26:14;7.43;;;4.03;;
68140;SDS011;54941;52.220;104.306;2023-10-09T03:28:41;6.15;;;3.70;;
68140;SDS011;54941;52.220;104.306;2023-10-09T03:31:07;6.85;;;3.90;;
68140;SDS011;54941;52.220;104.306;2023-10-09T03:33:33;6.47;;;4.05;;
68140;SDS011;54941;52.220;104.306;2023-10-09T03:35:59;6.63;;;4.13;;
68140;SDS011;54941;52.220;104.306;2023-10-09T03:38:26;7.65;;;3.63;;
68140;SDS011;54941;52.220;104.306;2023-10-09T03:40:53;6.35;;;3.45;;
68140;SDS011;54941;52.220;104.306;2023-10-09T03:43:20;5.03;;;3.47;;
68140;SDS011;54941;52.220;104.306;2023-10-09T03:45:46;6.80;;;4.30;;
68140;SDS011;54941;52.220;104.306;2023-10-09T03:48:12;7.03;;;3.78;;
68140;SDS011;54941;52.220;104.306;2023-10-09T03:50:39;6.07;;;3.28;;
68140;SDS011;54941;52.220;104.306;2023-10-09T03:53:05;5.80;;;3.80;;
68140;SDS011;54941;52.220;104.306;2023-10-09T03:55:32;8.20;;;4.57;;
68140;SDS011;54941;52.220;104.306;2023-10-09T03:58:01;6.45;;;4.07;;
68140;SDS011;54941;52.220;104.306;2023-10-09T04:00:27;7.30;;;3.92;;
68140;SDS011;54941;52.220;104.306;2023-10-09T04:02:55;5.90;;;3.25;;
68140;SDS011;54941;52.220;104.306;2023-10-09T04:05:21;6.70;;;3.42;;
68140;SDS011;54941;52.220;104.306;2023-10-09T04:07:47;6.88;;;3.70;;
68140;SDS011;54941;52.220;104.306;2023-10-09T04:10:14;6.95;;;4.05;;
68140;SDS011;54941;52.220;104.306;2023-10-09T04:12:40;7.15;;;4.20;;
68140;SDS011;54941;52.220;104.306;2023-10-09T04:15:08;9.30;;;4.95;;
68140;SDS011;54941;52.220;104.306;2023-10-09T04:20:01;6.75;;;4.10;;
68140;SDS011;54941;52.220;104.306;2023-10-09T04:22:29;6.45;;;3.92;;
68140;SDS011;54941;52.220;104.306;2023-10-09T04:24:55;7.72;;;4.25;;
68140;SDS011;54941;52.220;104.306;2023-10-09T04:27:22;7.10;;;3.90;;
68140;SDS011;54941;52.220;104.306;2023-10-09T04:29:48;8.40;;;3.80;;
68140;SDS011;54941;52.220;104.306;2023-10-09T04:32:15;6.93;;;3.33;;
68140;SDS011;54941;52.220;104.306;2023-10-09T04:34:42;5.85;;;3.70;;
68140;SDS011;54941;52.220;104.306;2023-10-09T04:37:08;7.78;;;3.65;;
68140;SDS011;54941;52.220;104.306;2023-10-09T04:39:34;5.07;;;3.15;;
68140;SDS011;54941;52.220;104.306;2023-10-09T04:42:01;7.60;;;4.40;;
68140;SDS011;54941;52.220;104.306;2023-10-09T04:44:27;7.18;;;3.80;;
68140;SDS011;54941;52.220;104.306;2023-10-09T04:46:53;6.32;;;3.90;;
68140;SDS011;54941;52.220;104.306;2023-10-09T04:49:21;6.88;;;4.30;;
68140;SDS011;54941;52.220;104.306;2023-10-09T04:51:47;9.63;;;3.92;;
68140;SDS011;54941;52.220;104.306;2023-10-09T04:54:14;6.20;;;4.45;;
68140;SDS011;54941;52.220;104.306;2023-10-09T04:56:40;6.28;;;3.92;;
68140;SDS011;54941;52.220;104.306;2023-10-09T04:59:06;7.05;;;4.15;;
68140;SDS011;54941;52.220;104.306;2023-10-09T05:01:33;7.47;;;4.65;;
68140;SDS011;54941;52.220;104.306;2023-10-09T05:03:59;6.43;;;4.22;;
68140;SDS011;54941;52.220;104.306;2023-10-09T05:06:26;7.40;;;4.00;;
68140;SDS011;54941;52.220;104.306;2023-10-09T05:08:53;5.93;;;3.10;;
68140;SDS011;54941;52.220;104.306;2023-10-09T05:11:21;7.40;;;3.92;;
68140;SDS011;54941;52.220;104.306;2023-10-09T05:13:48;6.38;;;3.50;;
68140;SDS011;54941;52.220;104.306;2023-10-09T05:16:14;6.50;;;3.88;;
68140;SDS011;54941;52.220;104.306;2023-10-09T05:18:42;6.60;;;3.63;;
68140;SDS011;54941;52.220;104.306;2023-10-09T05:21:08;6.03;;;3.58;;
68140;SDS011;54941;52.220;104.306;2023-10-09T05:23:36;6.75;;;3.65;;
68140;SDS011;54941;52.220;104.306;2023-10-09T05:26:02;6.22;;;3.78;;
68140;SDS011;54941;52.220;104.306;2023-10-09T05:28:28;6.47;;;3.42;;
68140;SDS011;54941;52.220;104.306;2023-10-09T05:30:55;8.07;;;4.10;;
68140;SDS011;54941;52.220;104.306;2023-10-09T05:33:21;5.93;;;3.42;;
68140;SDS011;54941;52.220;104.306;2023-10-09T05:35:48;7.45;;;3.90;;
68140;SDS011;54941;52.220;104.306;2023-10-09T05:38:14;6.65;;;4.15;;
68140;SDS011;54941;52.220;104.306;2023-10-09T05:40:42;6.05;;;3.50;;
68140;SDS011;54941;52.220;104.306;2023-10-09T05:43:08;6.97;;;3.72;;
68140;SDS011;54941;52.220;104.306;2023-10-09T05:45:35;6.18;;;3.67;;
68140;SDS011;54941;52.220;104.306;2023-10-09T05:48:01;6.72;;;4.05;;
68140;SDS011;54941;52.220;104.306;2023-10-09T05:50:27;5.85;;;3.75;;
68140;SDS011;54941;52.220;104.306;2023-10-09T05:52:54;6.80;;;3.53;;
68140;SDS011;54941;52.220;104.306;2023-10-09T05:55:23;8.20;;;4.95;;
68140;SDS011;54941;52.220;104.306;2023-10-09T05:57:52;7.25;;;3.90;;
68140;SDS011;54941;52.220;104.306;2023-10-09T06:00:19;8.57;;;4.13;;
68140;SDS011;54941;52.220;104.306;2023-10-09T06:02:45;7.25;;;3.85;;
68140;SDS011;54941;52.220;104.306;2023-10-09T06:05:11;7.32;;;4.25;;
68140;SDS011;54941;52.220;104.306;2023-10-09T06:07:38;7.93;;;4.70;;
68140;SDS011;54941;52.220;104.306;2023-10-09T06:10:04;7.18;;;4.00;;
68140;SDS011;54941;52.220;104.306;2023-10-09T06:12:31;9.68;;;4.35;;
68140;SDS011;54941;52.220;104.306;2023-10-09T06:14:59;8.07;;;4.80;;
68140;SDS011;54941;52.220;104.306;2023-10-09T06:17:25;8.75;;;4.88;;
68140;SDS011;54941;52.220;104.306;2023-10-09T06:19:51;7.90;;;4.68;;
68140;SDS011;54941;52.220;104.306;2023-10-09T06:22:18;8.40;;;4.95;;
68140;SDS011;54941;52.220;104.306;2023-10-09T06:24:44;10.00;;;5.20;;
68140;SDS011;54941;52.220;104.306;2023-10-09T06:27:10;9.30;;;4.80;;
68140;SDS011;54941;52.220;104.306;2023-10-09T06:29:40;10.32;;;5.03;;
68140;SDS011;54941;52.220;104.306;2023-10-09T06:32:09;8.60;;;5.32;;
68140;SDS011;54941;52.220;104.306;2023-10-09T06:34:36;9.45;;;4.88;;
68140;SDS011;54941;52.220;104.306;2023-10-09T06:37:02;9.05;;;4.70;;
68140;SDS011;54941;52.220;104.306;2023-10-09T06:39:28;10.57;;;5.03;;
68140;SDS011;54941;52.220;104.306;2023-10-09T06:41:55;9.73;;;5.50;;
68140;SDS011;54941;52.220;104.306;2023-10-09T06:44:21;7.80;;;5.20;;
68140;SDS011;54941;52.220;104.306;2023-10-09T06:46:47;9.35;;;4.97;;
68140;SDS011;54941;52.220;104.306;2023-10-09T06:49:16;9.68;;;4.50;;
68140;SDS011;54941;52.220;104.306;2023-10-09T06:51:42;9.48;;;5.00;;
68140;SDS011;54941;52.220;104.306;2023-10-09T06:54:08;7.25;;;4.72;;
68140;SDS011;54941;52.220;104.306;2023-10-09T06:56:35;8.80;;;4.70;;
68140;SDS011;54941;52.220;104.306;2023-10-09T06:59:02;10.15;;;5.25;;
68140;SDS011;54941;52.220;104.306;2023-10-09T07:01:30;7.90;;;4.38;;
68140;SDS011;54941;52.220;104.306;2023-10-09T07:03:56;7.93;;;4.00;;
68140;SDS011;54941;52.220;104.306;2023-10-09T07:06:24;7.20;;;3.90;;
68140;SDS011;54941;52.220;104.306;2023-10-09T07:08:51;8.07;;;4.38;;
68140;SDS011;54941;52.220;104.306;2023-10-09T07:11:18;7.50;;;4.25;;
68140;SDS011;54941;52.220;104.306;2023-10-09T07:13:44;5.85;;;3.55;;
68140;SDS011;54941;52.220;104.306;2023-10-09T07:16:10;5.57;;;3.78;;
68140;SDS011;54941;52.220;104.306;2023-10-09T07:18:36;8.93;;;3.95;;
68140;SDS011;54941;52.220;104.306;2023-10-09T07:21:03;6.75;;;3.42;;
68140;SDS011;54941;52.220;104.306;2023-10-09T07:23:31;6.78;;;3.80;;
68140;SDS011;54941;52.220;104.306;2023-10-09T07:26:00;7.78;;;4.22;;
68140;SDS011;54941;52.220;104.306;2023-10-09T07:28:33;5.75;;;3.63;;
68140;SDS011;54941;52.220;104.306;2023-10-09T07:30:59;6.78;;;3.42;;
68140;SDS011;54941;52.220;104.306;2023-10-09T07:33:26;7.10;;;3.72;;
68140;SDS011;54941;52.220;104.306;2023-10-09T07:35:52;5.93;;;3.13;;
68140;SDS011;54941;52.220;104.306;2023-10-09T07:38:19;5.22;;;3.20;;
68140;SDS011;54941;52.220;104.306;2023-10-09T07:40:48;6.78;;;3.90;;
68140;SDS011;54941;52.220;104.306;2023-10-09T07:43:17;6.88;;;3.10;;
68140;SDS011;54941;52.220;104.306;2023-10-09T07:45:43;6.60;;;3.65;;
68140;SDS011;54941;52.220;104.306;2023-10-09T07:48:09;5.65;;;3.20;;
68140;SDS011;54941;52.220;104.306;2023-10-09T07:50:36;7.20;;;3.50;;
68140;SDS011;54941;52.220;104.306;2023-10-09T07:53:04;5.45;;;3.00;;
68140;SDS011;54941;52.220;104.306;2023-10-09T07:55:30;5.30;;;3.08;;
68140;SDS011;54941;52.220;104.306;2023-10-09T07:57:58;5.65;;;3.10;;
68140;SDS011;54941;52.220;104.306;2023-10-09T08:00:24;5.93;;;3.15;;
68140;SDS011;54941;52.220;104.306;2023-10-09T08:02:51;5.30;;;3.45;;
68140;SDS011;54941;52.220;104.306;2023-10-09T08:05:17;4.75;;;2.67;;
68140;SDS011;54941;52.220;104.306;2023-10-09T08:07:43;6.05;;;3.42;;
68140;SDS011;54941;52.220;104.306;2023-10-09T08:10:10;5.38;;;2.90;;
68140;SDS011;54941;52.220;104.306;2023-10-09T08:12:36;7.75;;;4.00;;
68140;SDS011;54941;52.220;104.306;2023-10-09T08:15:06;6.13;;;2.75;;
68140;SDS011;54941;52.220;104.306;2023-10-09T08:17:32;4.68;;;3.33;;
68140;SDS011;54941;52.220;104.306;2023-10-09T08:19:59;5.85;;;2.83;;
68140;SDS011;54941;52.220;104.306;2023-10-09T08:22:25;6.22;;;2.92;;
68140;SDS011;54941;52.220;104.306;2023-10-09T08:24:53;5.50;;;3.20;;
68140;SDS011;54941;52.220;104.306;2023-10-09T08:27:20;5.38;;;3.50;;
68140;SDS011;54941;52.220;104.306;2023-10-09T08:29:46;7.10;;;3.50;;
68140;SDS011;54941;52.220;104.306;2023-10-09T08:32:14;5.57;;;3.45;;
68140;SDS011;54941;52.220;104.306;2023-10-09T08:34:40;4.53;;;2.63;;
68140;SDS011;54941;52.220;104.306;2023-10-09T08:37:06;5.15;;;2.67;;
68140;SDS011;54941;52.220;104.306;2023-10-09T08:39:32;3.90;;;2.53;;
68140;SDS011;54941;52.220;104.306;2023-10-09T08:41:59;5.43;;;3.03;;
68140;SDS011;54941;52.220;104.306;2023-10-09T08:44:25;4.47;;;3.03;;
68140;SDS011;54941;52.220;104.306;2023-10-09T08:46:52;6.97;;;2.67;;
68140;SDS011;54941;52.220;104.306;2023-10-09T08:49:21;4.43;;;2.55;;
68140;SDS011;54941;52.220;104.306;2023-10-09T08:51:47;5.45;;;2.55;;
68140;SDS011;54941;52.220;104.306;2023-10-09T08:54:14;4.72;;;2.45;;
68140;SDS011;54941;52.220;104.306;2023-10-09T08:56:40;6.13;;;2.90;;
68140;SDS011;54941;52.220;104.306;2023-10-09T08:59:07;7.00;;;3.50;;
68140;SDS011;54941;52.220;104.306;2023-10-09T09:01:33;6.90;;;3.85;;
68140;SDS011;54941;52.220;104.306;2023-10-09T09:04:00;4.75;;;3.03;;
68140;SDS011;54941;52.220;104.306;2023-10-09T09:06:35;6.57;;;3.85;;
68140;SDS011;54941;52.220;104.306;2023-10-09T09:09:09;6.10;;;2.88;;
68140;SDS011;54941;52.220;104.306;2023-10-09T09:11:40;5.00;;;2.55;;
68140;SDS011;54941;52.220;104.306;2023-10-09T09:14:07;4.90;;;3.00;;
68140;SDS011;54941;52.220;104.306;2023-10-09T09:16:34;6.05;;;3.45;;
68140;SDS011;54941;52.220;104.306;2023-10-09T09:19:01;7.68;;;3.08;;
68140;SDS011;54941;52.220;104.306;2023-10-09T09:21:30;5.85;;;2.58;;
68140;SDS011;54941;52.220;104.306;2023-10-09T09:23:57;6.78;;;3.50;;
68140;SDS011;54941;52.220;104.306;2023-10-09T09:26:35;8.45;;;4.15;;
68140;SDS011;54941;52.220;104.306;2023-10-09T09:29:04;7.50;;;4.35;;
68140;SDS011;54941;52.220;104.306;2023-10-09T09:31:31;8.05;;;4.07;;
68140;SDS011;54941;52.220;104.306;2023-10-09T09:33:57;17.13;;;7.90;;
68140;SDS011;54941;52.220;104.306;2023-10-09T09:36:23;12.40;;;6.88;;
68140;SDS011;54941;52.220;104.306;2023-10-09T09:38:51;12.55;;;7.28;;
68140;SDS011;54941;52.220;104.306;2023-10-09T09:43:44;16.30;;;7.63;;
68140;SDS011;54941;52.220;104.306;2023-10-09T09:46:11;10.90;;;5.32;;
68140;SDS011;54941;52.220;104.306;2023-10-09T09:48:38;7.20;;;3.80;;
68140;SDS011;54941;52.220;104.306;2023-10-09T09:51:05;13.40;;;8.25;;
68140;SDS011;54941;52.220;104.306;2023-10-09T09:53:31;14.05;;;6.40;;
68140;SDS011;54941;52.220;104.306;2023-10-09T09:55:59;9.98;;;5.32;;
68140;SDS011;54941;52.220;104.306;2023-10-09T09:58:28;7.20;;;3.55;;
68140;SDS011;54941;52.220;104.306;2023-10-09T10:00:56;5.55;;;3.20;;
68140;SDS011;54941;52.220;104.306;2023-10-09T10:03:28;8.25;;;4.35;;
68140;SDS011;54941;52.220;104.306;2023-10-09T10:06:00;9.93;;;5.93;;
68140;SDS011;54941;52.220;104.306;2023-10-09T10:08:27;12.40;;;6.63;;
68140;SDS011;54941;52.220;104.306;2023-10-09T10:10:54;14.63;;;7.55;;
68140;SDS011;54941;52.220;104.306;2023-10-09T10:16:21;18.35;;;9.15;;
68140;SDS011;54941;52.220;104.306;2023-10-09T10:18:54;8.50;;;5.13;;
68140;SDS011;54941;52.220;104.306;2023-10-09T10:21:22;17.92;;;9.95;;
68140;SDS011;54941;52.220;104.306;2023-10-09T10:23:49;23.42;;;11.68;;
68140;SDS011;54941;52.220;104.306;2023-10-09T10:26:19;15.02;;;7.35;;
68140;SDS011;54941;52.220;104.306;2023-10-09T10:31:57;21.10;;;9.68;;
68140;SDS011;54941;52.220;104.306;2023-10-09T10:34:24;19.33;;;8.68;;
68140;SDS011;54941;52.220;104.306;2023-10-09T10:36:51;16.98;;;7.90;;
68140;SDS011;54941;52.220;104.306;2023-10-09T10:39:18;31.20;;;14.73;;
68140;SDS011;54941;52.220;104.306;2023-10-09T10:41:52;33.50;;;15.57;;
68140;SDS011;54941;52.220;104.306;2023-10-09T10:44:27;27.40;;;14.73;;
68140;SDS011;54941;52.220;104.306;2023-10-09T10:46:54;35.28;;;15.73;;
68140;SDS011;54941;52.220;104.306;2023-10-09T10:49:20;34.53;;;15.70;;
68140;SDS011;54941;52.220;104.306;2023-10-09T10:51:47;26.17;;;14.38;;
68140;SDS011;54941;52.220;104.306;2023-10-09T10:54:20;30.48;;;15.75;;
68140;SDS011;54941;52.220;104.306;2023-10-09T10:56:47;31.50;;;16.83;;
68140;SDS011;54941;52.220;104.306;2023-10-09T10:59:14;34.05;;;18.70;;
68140;SDS011;54941;52.220;104.306;2023-10-09T11:01:41;27.95;;;15.93;;
68140;SDS011;54941;52.220;104.306;2023-10-09T11:04:10;20.85;;;10.27;;
68140;SDS011;54941;52.220;104.306;2023-10-09T11:06:37;31.42;;;18.15;;
68140;SDS011;54941;52.220;104.306;2023-10-09T11:09:04;34.63;;;18.38;;
68140;SDS011;54941;52.220;104.306;2023-10-09T11:11:31;28.40;;;14.60;;
68140;SDS011;54941;52.220;104.306;2023-10-09T11:14:07;26.88;;;10.98;;
68140;SDS011;54941;52.220;104.306;2023-10-09T11:16:36;15.48;;;8.80;;
68140;SDS011;54941;52.220;104.306;2023-10-09T11:19:03;26.90;;;12.77;;
68140;SDS011;54941;52.220;104.306;2023-10-09T11:21:30;25.80;;;13.02;;
68140;SDS011;54941;52.220;104.306;2023-10-09T11:23:57;22.80;;;12.15;;
68140;SDS011;54941;52.220;104.306;2023-10-09T11:26:25;29.67;;;16.10;;
68140;SDS011;54941;52.220;104.306;2023-10-09T11:29:08;42.85;;;20.23;;
68140;SDS011;54941;52.220;104.306;2023-10-09T11:31:35;41.25;;;20.25;;
68140;SDS011;54941;52.220;104.306;2023-10-09T11:34:01;42.20;;;19.50;;
68140;SDS011;54941;52.220;104.306;2023-10-09T11:36:29;36.72;;;18.55;;
68140;SDS011;54941;52.220;104.306;2023-10-09T11:39:00;40.28;;;22.98;;
68140;SDS011;54941;52.220;104.306;2023-10-09T11:41:28;50.67;;;31.55;;
68140;SDS011;54941;52.220;104.306;2023-10-09T11:43:54;67.25;;;40.90;;
68140;SDS011;54941;52.220;104.306;2023-10-09T11:46:20;60.78;;;32.83;;
68140;SDS011;54941;52.220;104.306;2023-10-09T11:48:47;45.05;;;25.73;;
68140;SDS011;54941;52.220;104.306;2023-10-09T11:51:30;45.65;;;22.90;;
68140;SDS011;54941;52.220;104.306;2023-10-09T11:53:56;37.05;;;18.70;;
68140;SDS011;54941;52.220;104.306;2023-10-09T11:56:22;31.10;;;15.48;;
68140;SDS011;54941;52.220;104.306;2023-10-09T11:58:49;35.50;;;19.90;;
68140;SDS011;54941;52.220;104.306;2023-10-09T12:01:15;24.33;;;12.55;;
68140;SDS011;54941;52.220;104.306;2023-10-09T12:03:42;24.23;;;10.05;;
68140;SDS011;54941;52.220;104.306;2023-10-09T12:06:08;24.80;;;12.45;;
68140;SDS011;54941;52.220;104.306;2023-10-09T12:08:36;32.42;;;13.70;;
68140;SDS011;54941;52.220;104.306;2023-10-09T12:11:02;20.02;;;10.73;;
68140;SDS011;54941;52.220;104.306;2023-10-09T12:13:29;22.52;;;11.18;;
68140;SDS011;54941;52.220;104.306;2023-10-09T12:15:56;26.13;;;13.52;;
68140;SDS011;54941;52.220;104.306;2023-10-09T12:18:22;25.48;;;12.75;;
68140;SDS011;54941;52.220;104.306;2023-10-09T12:20:48;27.13;;;13.00;;
68140;SDS011;54941;52.220;104.306;2023-10-09T12:23:14;26.90;;;13.15;;
68140;SDS011;54941;52.220;104.306;2023-10-09T12:25:42;26.10;;;12.32;;
68140;SDS011;54941;52.220;104.306;2023-10-09T12:28:09;28.73;;;13.30;;
68140;SDS011;54941;52.220;104.306;2023-10-09T12:30:35;25.77;;;14.35;;
68140;SDS011;54941;52.220;104.306;2023-10-09T12:33:02;24.77;;;12.25;;
68140;SDS011;54941;52.220;104.306;2023-10-09T12:35:28;24.52;;;13.80;;
68140;SDS011;54941;52.220;104.306;2023-10-09T12:37:54;28.20;;;12.98;;
68140;SDS011;54941;52.220;104.306;2023-10-09T12:40:21;22.20;;;11.45;;
68140;SDS011;54941;52.220;104.306;2023-10-09T12:42:49;25.77;;;11.63;;
68140;SDS011;54941;52.220;104.306;2023-10-09T12:45:16;22.20;;;10.32;;
68140;SDS011;54941;52.220;104.306;2023-10-09T12:47:42;29.00;;;12.32;;
68140;SDS011;54941;52.220;104.306;2023-10-09T12:50:09;26.63;;;11.68;;
68140;SDS011;54941;52.220;104.306;2023-10-09T12:52:35;25.45;;;12.27;;
68140;SDS011;54941;52.220;104.306;2023-10-09T12:55:01;24.65;;;11.32;;
68140;SDS011;54941;52.220;104.306;2023-10-09T12:57:29;21.92;;;11.25;;
68140;SDS011;54941;52.220;104.306;2023-10-09T12:59:57;21.38;;;10.52;;
68140;SDS011;54941;52.220;104.306;2023-10-09T13:02:23;20.02;;;10.05;;
68140;SDS011;54941;52.220;104.306;2023-10-09T13:04:49;24.98;;;11.43;;
68140;SDS011;54941;52.220;104.306;2023-10-09T13:07:16;28.45;;;12.63;;
68140;SDS011;54941;52.220;104.306;2023-10-09T13:09:42;26.92;;;11.93;;
68140;SDS011;54941;52.220;104.306;2023-10-09T13:12:08;21.00;;;10.60;;
68140;SDS011;54941;52.220;104.306;2023-10-09T13:14:34;21.05;;;9.98;;
68140;SDS011;54941;52.220;104.306;2023-10-09T13:17:03;26.38;;;12.13;;
68140;SDS011;54941;52.220;104.306;2023-10-09T13:19:29;26.30;;;12.70;;
68140;SDS011;54941;52.220;104.306;2023-10-09T13:21:55;25.00;;;11.23;;
68140;SDS011;54941;52.220;104.306;2023-10-09T13:24:22;23.02;;;10.77;;
68140;SDS011;54941;52.220;104.306;2023-10-09T13:26:48;24.40;;;10.98;;
68140;SDS011;54941;52.220;104.306;2023-10-09T13:29:14;21.85;;;10.10;;
68140;SDS011;54941;52.220;104.306;2023-10-09T13:31:40;21.95;;;9.75;;
68140;SDS011;54941;52.220;104.306;2023-10-09T13:34:08;20.08;;;10.18;;
68140;SDS011;54941;52.220;104.306;2023-10-09T13:36:35;20.00;;;10.27;;
68140;SDS011;54941;52.220;104.306;2023-10-09T13:39:02;28.98;;;10.50;;
68140;SDS011;54941;52.220;104.306;2023-10-09T13:41:29;20.90;;;10.10;;
68140;SDS011;54941;52.220;104.306;2023-10-09T13:43:55;22.27;;;9.65;;
68140;SDS011;54941;52.220;104.306;2023-10-09T13:46:21;21.23;;;11.35;;
68140;SDS011;54941;52.220;104.306;2023-10-09T13:48:48;17.63;;;9.80;;
68140;SDS011;54941;52.220;104.306;2023-10-09T13:51:16;18.08;;;8.25;;
68140;SDS011;54941;52.220;104.306;2023-10-09T13:53:42;20.15;;;8.98;;
68140;SDS011;54941;52.220;104.306;2023-10-09T13:56:10;13.65;;;7.97;;
68140;SDS011;54941;52.220;104.306;2023-10-09T13:58:36;26.17;;;9.68;;
68140;SDS011;54941;52.220;104.306;2023-10-09T14:01:03;16.90;;;7.85;;
68140;SDS011;54941;52.220;104.306;2023-10-09T14:03:30;16.88;;;8.00;;
68140;SDS011;54941;52.220;104.306;2023-10-09T14:05:57;20.40;;;8.23;;
68140;SDS011;54941;52.220;104.306;2023-10-09T14:08:24;15.48;;;7.15;;
68140;SDS011;54941;52.220;104.306;2023-10-09T14:10:51;22.17;;;8.48;;
68140;SDS011;54941;52.220;104.306;2023-10-09T14:13:17;18.58;;;8.52;;
68140;SDS011;54941;52.220;104.306;2023-10-09T14:15:43;27.75;;;9.95;;
68140;SDS011;54941;52.220;104.306;2023-10-09T14:18:10;20.67;;;8.75;;
68140;SDS011;54941;52.220;104.306;2023-10-09T14:20:36;18.05;;;10.18;;
68140;SDS011;54941;52.220;104.306;2023-10-09T14:23:02;16.55;;;8.23;;